Time;durP1;ratioP1;P1;durP2;ratioP2;P2;SDS_P1;SDS_P2;PMS_P1;PMS_P2;Temp;Humidity;BMP_temperature;BMP_pressure;BME280_temperature;BME280_humidity;BME280_pressure;Samples;Min_cycle;Max_cycle;Signal;HPM_P1;HPM_P2
2024/04/02 00:01:47;;;;;;;6.93;4.10;;;9.50;99.90;;;;;;4998354;28;20200;-82
2024/04/02 00:04:16;;;;;;;7.67;4.03;;;9.50;99.90;;;;;;4995605;28;20235;-82
2024/04/02 00:06:45;;;;;;;7.83;4.20;;;9.60;99.90;;;;;;5004479;28;20215;-81
2024/04/02 00:09:20;;;;;;;7.07;4.00;;;9.50;99.90;;;;;;5001165;28;20219;-82
2024/04/02 00:11:47;;;;;;;4.60;3.77;;;9.60;99.90;;;;;;5003286;28;20207;-82
2024/04/02 00:14:14;;;;;;;8.17;4.20;;;9.50;99.90;;;;;;4996206;28;20220;-82
2024/04/02 00:16:50;;;;;;;6.50;4.23;;;9.60;99.90;;;;;;5000854;28;20207;-82
2024/04/02 00:19:22;;;;;;;5.70;3.80;;;9.60;99.90;;;;;;5005470;28;20231;-82
2024/04/02 00:21:47;;;;;;;4.20;3.57;;;9.60;99.90;;;;;;5005262;28;20200;-82
2024/04/02 00:24:14;;;;;;;5.40;3.80;;;9.60;99.90;;;;;;5005458;28;20291;-82
2024/04/02 00:26:40;;;;;;;5.67;3.97;;;9.50;99.90;;;;;;4997307;28;20207;-81
2024/04/02 00:29:07;;;;;;;5.37;4.23;;;9.60;99.90;;;;;;4982631;28;20615;-81
2024/04/02 00:31:33;;;;;;;7.93;4.10;;;9.60;99.90;;;;;;4992720;28;20263;-81
2024/04/02 00:34:01;;;;;;;4.83;3.87;;;9.50;99.90;;;;;;5001687;28;20594;-82
2024/04/02 00:36:28;;;;;;;6.90;3.97;;;9.50;99.90;;;;;;4995871;28;20200;-81
2024/04/02 00:38:55;;;;;;;6.90;4.17;;;9.40;99.90;;;;;;4990801;28;20235;-81
2024/04/02 00:41:21;;;;;;;7.40;4.67;;;9.40;99.90;;;;;;4999188;28;20200;-81
2024/04/02 00:43:48;;;;;;;5.17;4.27;;;9.40;99.90;;;;;;5002374;28;20207;-81
2024/04/02 00:46:14;;;;;;;6.10;4.30;;;9.40;99.90;;;;;;4998442;28;20223;-81
2024/04/02 00:48:41;;;;;;;7.17;4.30;;;9.40;99.90;;;;;;4999382;28;20380;-81
2024/04/02 00:51:07;;;;;;;7.30;4.63;;;9.30;99.90;;;;;;5000910;28;20204;-81
2024/04/02 00:53:35;;;;;;;6.77;4.37;;;9.30;99.90;;;;;;4990603;28;20232;-81
2024/04/02 00:56:02;;;;;;;7.87;4.97;;;9.30;99.90;;;;;;4999768;28;20200;-81
2024/04/02 00:58:31;;;;;;;7.60;4.50;;;9.30;99.90;;;;;;4987899;28;21753;-81
2024/04/02 01:00:57;;;;;;;7.80;4.57;;;9.30;99.90;;;;;;4988171;28;20893;-81
2024/04/02 01:03:25;;;;;;;6.70;4.30;;;9.30;99.90;;;;;;5001401;28;20203;-81
2024/04/02 01:05:52;;;;;;;7.67;4.53;;;9.20;99.90;;;;;;4989567;28;20227;-81
2024/04/02 01:08:19;;;;;;;5.87;4.37;;;9.20;99.90;;;;;;4993921;28;20263;-81
2024/04/02 01:10:46;;;;;;;9.97;5.00;;;9.20;99.90;;;;;;4997835;28;20242;-81
2024/04/02 01:13:13;;;;;;;5.50;4.07;;;9.20;99.90;;;;;;4990472;28;20224;-81
2024/04/02 01:15:41;;;;;;;7.87;4.47;;;9.20;99.90;;;;;;4999598;28;20211;-81
2024/04/02 01:18:20;;;;;;;7.50;4.57;;;9.20;99.90;;;;;;4992933;28;20216;-81
2024/04/02 01:20:46;;;;;;;5.27;4.33;;;9.20;99.90;;;;;;4992494;28;20217;-81
2024/04/02 01:23:15;;;;;;;5.97;4.60;;;9.20;99.90;;;;;;4998905;28;20726;-81
2024/04/02 01:25:47;;;;;;;6.33;4.27;;;9.10;99.90;;;;;;4988562;28;20213;-81
2024/04/02 01:28:28;;;;;;;8.00;5.27;;;9.10;99.90;;;;;;4994875;28;20206;-81
2024/04/02 01:30:56;;;;;;;4.57;4.07;;;9.10;99.90;;;;;;4977382;28;20249;-81
2024/04/02 01:33:24;;;;;;;8.47;4.93;;;9.10;99.90;;;;;;4993258;28;20247;-81
2024/04/02 01:36:14;;;;;;;5.93;4.43;;;9.00;99.90;;;;;;4997433;28;20231;-81
2024/04/02 01:38:41;;;;;;;7.17;4.20;;;9.00;99.90;;;;;;4992892;28;20220;-81
2024/04/02 01:41:11;;;;;;;6.10;4.73;;;9.00;99.90;;;;;;4999034;28;20655;-81
2024/04/02 01:43:41;;;;;;;5.27;4.63;;;9.00;99.90;;;;;;4993843;28;20212;-81
2024/04/02 01:46:07;;;;;;;6.43;4.90;;;8.90;99.90;;;;;;4996329;28;20212;-81
2024/04/02 01:48:33;;;;;;;7.07;4.93;;;8.80;99.90;;;;;;4997426;28;20246;-81
2024/04/02 01:50:59;;;;;;;6.13;5.17;;;8.90;99.90;;;;;;4997758;28;20235;-81
2024/04/02 01:53:45;;;;;;;7.00;5.13;;;8.90;99.90;;;;;;4996967;28;20212;-81
2024/04/02 01:56:12;;;;;;;6.53;5.43;;;8.80;99.90;;;;;;4998108;28;20204;-81
2024/04/02 01:58:43;;;;;;;10.37;4.93;;;8.80;99.90;;;;;;4987582;28;20228;-81
2024/04/02 02:01:25;;;;;;;7.67;5.07;;;8.70;99.90;;;;;;4997188;28;20204;-81
2024/04/02 02:06:34;;;;;;;5.53;4.93;;;8.80;99.90;;;;;;4993066;28;20238;-81
2024/04/02 02:09:02;;;;;;;6.73;4.90;;;8.80;99.90;;;;;;4996406;28;20326;-81
2024/04/02 02:11:32;;;;;;;4.80;4.30;;;8.80;99.90;;;;;;5000124;28;20251;-81
2024/04/02 02:14:00;;;;;;;8.30;4.90;;;8.80;99.90;;;;;;4999703;28;20223;-81
2024/04/02 02:16:35;;;;;;;6.53;4.93;;;8.80;99.90;;;;;;5001460;28;20200;-82
2024/04/02 02:19:02;;;;;;;5.80;4.30;;;8.80;99.90;;;;;;5001883;28;20227;-81
2024/04/02 02:21:30;;;;;;;5.53;4.97;;;8.80;99.90;;;;;;4992632;28;20196;-81
2024/04/02 02:23:56;;;;;;;7.43;5.10;;;8.80;99.90;;;;;;4997666;28;20226;-81
2024/04/02 02:26:25;;;;;;;6.67;5.37;;;8.80;99.90;;;;;;4994622;28;20201;-81
2024/04/02 02:28:56;;;;;;;7.50;4.43;;;8.90;99.90;;;;;;4992356;28;20239;-81
2024/04/02 02:31:24;;;;;;;6.93;4.73;;;8.90;99.90;;;;;;4988394;28;20671;-81
2024/04/02 02:33:50;;;;;;;7.50;5.27;;;8.90;99.90;;;;;;4995601;28;20310;-81
2024/04/02 02:36:23;;;;;;;6.90;4.70;;;8.90;99.90;;;;;;5000080;28;20293;-81
2024/04/02 02:38:52;;;;;;;5.77;4.83;;;8.90;99.90;;;;;;4997036;28;20227;-81
2024/04/02 02:41:19;;;;;;;7.30;5.40;;;8.90;99.90;;;;;;4998000;28;20231;-81
2024/04/02 02:43:45;;;;;;;8.60;5.27;;;9.00;99.90;;;;;;4998304;28;20272;-81
2024/04/02 02:46:13;;;;;;;7.20;5.40;;;9.00;99.90;;;;;;4986169;28;20247;-81
2024/04/02 02:48:39;;;;;;;6.97;5.50;;;9.10;99.90;;;;;;5003654;28;20315;-81
2024/04/02 02:51:08;;;;;;;6.57;5.47;;;9.10;99.90;;;;;;4999372;28;20224;-81
2024/04/02 02:53:36;;;;;;;7.03;5.20;;;9.10;99.90;;;;;;5001907;28;20303;-81
2024/04/02 02:56:05;;;;;;;6.27;5.60;;;9.20;99.90;;;;;;4999993;28;20291;-81
2024/04/02 02:58:31;;;;;;;9.63;5.87;;;9.10;99.90;;;;;;5005114;28;20258;-81
2024/04/02 03:00:58;;;;;;;7.90;5.97;;;9.10;99.90;;;;;;4997854;28;20204;-82
2024/04/02 03:03:25;;;;;;;8.47;5.97;;;9.20;99.90;;;;;;5002419;28;20196;-83
2024/04/02 03:05:56;;;;;;;8.77;6.13;;;9.10;99.90;;;;;;5005561;28;20643;-82
2024/04/02 03:08:22;;;;;;;7.23;5.77;;;9.20;99.90;;;;;;4999697;28;20231;-82
2024/04/02 03:10:55;;;;;;;6.33;5.43;;;9.10;99.90;;;;;;4993637;28;20235;-82
2024/04/02 03:13:23;;;;;;;9.77;6.03;;;9.20;99.90;;;;;;5001916;28;20227;-82
2024/04/02 03:15:50;;;;;;;7.23;5.43;;;9.10;99.90;;;;;;5001431;28;20387;-82
2024/04/02 03:18:16;;;;;;;8.50;6.30;;;9.10;99.90;;;;;;4999358;28;20615;-82
2024/04/02 03:20:44;;;;;;;9.17;5.80;;;9.00;99.90;;;;;;5002108;28;20203;-82
2024/04/02 03:23:10;;;;;;;7.07;5.53;;;9.00;99.90;;;;;;5000805;28;20200;-82
2024/04/02 03:25:37;;;;;;;8.27;5.77;;;9.00;99.90;;;;;;5002212;28;20200;-82
2024/04/02 03:28:03;;;;;;;8.90;5.93;;;9.00;99.90;;;;;;4999904;28;20227;-82
2024/04/02 03:30:30;;;;;;;7.23;5.47;;;9.00;99.90;;;;;;4976191;28;20216;-82
2024/04/02 03:32:56;;;;;;;6.43;5.37;;;9.00;99.90;;;;;;4999467;28;20208;-81
2024/04/02 03:35:27;;;;;;;7.13;5.40;;;9.00;99.90;;;;;;4999420;28;20260;-82
2024/04/02 03:37:55;;;;;;;10.80;5.53;;;9.10;99.90;;;;;;4999028;28;20282;-82
2024/04/02 03:40:22;;;;;;;7.20;5.37;;;9.00;99.90;;;;;;4996567;28;20235;-82
2024/04/02 03:42:50;;;;;;;7.40;5.40;;;9.00;99.90;;;;;;4996608;28;20235;-82
2024/04/02 03:45:17;;;;;;;6.17;5.43;;;9.00;99.90;;;;;;4996658;28;20231;-83
2024/04/02 03:47:42;;;;;;;6.37;5.60;;;9.00;99.90;;;;;;4991231;28;20247;-82
2024/04/02 03:50:10;;;;;;;6.23;5.33;;;9.00;99.90;;;;;;5003089;28;20227;-82
2024/04/02 03:52:43;;;;;;;7.00;5.70;;;9.00;99.90;;;;;;4997457;28;20247;-82
2024/04/02 03:55:21;;;;;;;8.07;6.30;;;8.90;99.90;;;;;;4998451;28;20263;-82
2024/04/02 04:00:30;;;;;;;7.23;5.73;;;8.90;99.90;;;;;;5002183;28;20230;-82
2024/04/02 04:02:58;;;;;;;9.03;6.10;;;8.90;99.90;;;;;;4998078;28;20270;-82
2024/04/02 04:05:31;;;;;;;9.27;6.70;;;8.80;99.90;;;;;;4992386;28;20201;-83
2024/04/02 04:07:58;;;;;;;8.43;6.47;;;8.80;99.90;;;;;;4998444;28;20208;-82
2024/04/02 04:10:40;;;;;;;9.17;6.77;;;8.80;99.90;;;;;;5000358;28;20247;-83
2024/04/02 04:13:06;;;;;;;8.70;6.77;;;8.80;99.90;;;;;;5000651;28;20232;-82
2024/04/02 04:15:33;;;;;;;9.33;7.07;;;8.70;99.90;;;;;;5002780;28;20243;-83
2024/04/02 04:17:59;;;;;;;9.03;6.83;;;8.70;99.90;;;;;;5003915;28;20224;-81
2024/04/02 04:20:30;;;;;;;10.20;6.77;;;8.70;99.90;;;;;;4991072;28;20263;-82
2024/04/02 04:22:56;;;;;;;9.03;6.53;;;8.70;99.90;;;;;;4996741;28;20204;-81
2024/04/02 04:25:23;;;;;;;7.60;6.80;;;8.70;99.90;;;;;;4992520;28;20196;-81
2024/04/02 04:27:50;;;;;;;10.67;6.80;;;8.70;99.90;;;;;;4999569;28;20298;-82
2024/04/02 04:30:17;;;;;;;9.33;6.87;;;8.70;99.90;;;;;;4975304;28;20248;-82
2024/04/02 04:32:43;;;;;;;8.57;6.73;;;8.80;99.90;;;;;;4995174;28;20239;-82
2024/04/02 04:35:10;;;;;;;10.13;6.50;;;8.80;99.90;;;;;;4995144;28;20577;-82
2024/04/02 04:37:36;;;;;;;9.33;6.90;;;8.70;99.90;;;;;;4991490;28;20450;-82
2024/04/02 04:40:03;;;;;;;8.47;6.70;;;8.70;99.90;;;;;;4999863;28;20226;-82
2024/04/02 04:42:32;;;;;;;9.07;6.70;;;8.70;99.90;;;;;;5000800;28;20200;-82
2024/04/02 04:45:00;;;;;;;8.20;6.50;;;8.70;99.90;;;;;;4996957;28;20196;-82
2024/04/02 04:47:26;;;;;;;9.70;6.47;;;8.70;99.90;;;;;;4997088;28;20238;-81
2024/04/02 04:49:53;;;;;;;8.37;6.97;;;8.70;99.90;;;;;;4997637;28;20213;-82
2024/04/02 04:52:19;;;;;;;9.33;6.33;;;8.70;99.90;;;;;;4999945;28;20283;-83
2024/04/02 04:54:46;;;;;;;9.50;6.53;;;8.70;99.90;;;;;;4995757;28;20322;-82
2024/04/02 04:57:12;;;;;;;10.37;6.40;;;8.60;99.90;;;;;;4992698;28;20291;-81
2024/04/02 04:59:39;;;;;;;10.33;6.43;;;8.60;99.90;;;;;;4996100;28;20251;-82
2024/04/02 05:02:06;;;;;;;8.93;6.87;;;8.60;99.90;;;;;;4994353;28;20234;-84
2024/04/02 05:04:33;;;;;;;10.20;6.23;;;8.60;99.90;;;;;;4997155;28;20214;-82
2024/04/02 05:06:59;;;;;;;9.47;6.13;;;8.60;99.90;;;;;;4992296;28;20250;-82
2024/04/02 05:09:26;;;;;;;8.83;6.20;;;8.60;99.90;;;;;;4990927;28;21830;-83
2024/04/02 05:11:51;;;;;;;8.90;6.70;;;8.60;99.90;;;;;;5000806;28;20211;-82
2024/04/02 05:14:19;;;;;;;8.80;6.30;;;8.60;99.90;;;;;;5001715;28;20307;-82
2024/04/02 05:16:45;;;;;;;10.30;5.90;;;8.60;99.90;;;;;;4995315;28;20204;-84
2024/04/02 05:19:14;;;;;;;10.27;6.03;;;8.50;99.90;;;;;;4996597;28;20764;-84
2024/04/02 05:21:43;;;;;;;7.67;5.83;;;8.50;99.90;;;;;;5001839;28;20220;-83
2024/04/02 05:24:09;;;;;;;10.67;6.40;;;8.50;99.90;;;;;;5001786;28;20579;-82
2024/04/02 05:26:35;;;;;;;7.47;6.10;;;8.50;99.90;;;;;;4994508;28;20235;-82
2024/04/02 05:29:02;;;;;;;9.13;6.90;;;8.50;99.90;;;;;;4999696;28;20230;-83
2024/04/02 05:40:43;;;;;;;7.97;5.40;;;8.50;99.90;;;;;;5003575;28;20214;-83
2024/04/02 05:43:37;;;;;;;5.90;5.30;;;8.50;99.90;;;;;;4987731;28;20202;-87
2024/04/02 05:46:31;;;;;;;7.23;5.47;;;8.50;99.90;;;;;;4983747;28;20195;-83
2024/04/02 05:49:22;;;;;;;8.10;5.30;;;8.50;99.90;;;;;;4984846;28;20210;-84
2024/04/02 05:52:24;;;;;;;6.13;4.90;;;8.50;99.90;;;;;;4949771;29;20232;-84
2024/04/02 06:09:49;;;;;;;8.43;4.67;;;8.60;99.90;;;;;;4980287;28;20232;-84
2024/04/02 06:12:45;;;;;;;5.67;5.03;;;8.70;99.90;;;;;;4990172;28;20258;-84
2024/04/02 06:15:28;;;;;;;5.93;4.80;;;8.70;99.90;;;;;;4986602;28;20309;-84
2024/04/02 06:18:24;;;;;;;7.00;4.67;;;8.70;99.90;;;;;;4974279;28;20216;-83
2024/04/02 06:24:11;;;;;;;6.10;4.17;;;8.80;99.90;;;;;;4978822;28;20243;-84
2024/04/02 06:27:36;;;;;;;6.90;4.43;;;8.80;99.90;;;;;;4981415;28;20205;-84
2024/04/02 06:30:52;;;;;;;8.53;4.50;;;8.80;99.90;;;;;;4977283;28;20203;-84
2024/04/02 06:46:17;;;;;;;4.73;3.50;;;9.00;99.90;;;;;;4952740;28;20204;-83
2024/04/02 08:27:04;;;;;;;4.47;3.67;;;10.90;99.90;;;;;;4930874;28;20213;-85
2024/04/02 13:22:02;;;;;;;5.07;2.70;;;12.40;99.90;;;;;;913461;24;20512;-87
2024/04/02 13:24:28;;;;;;;4.13;3.10;;;12.50;99.90;;;;;;4857691;29;20275;-87
2024/04/02 13:26:55;;;;;;;4.13;2.80;;;12.50;99.90;;;;;;4859361;29;20239;-88
2024/04/02 13:29:22;;;;;;;7.07;2.87;;;12.50;99.90;;;;;;4858631;29;20600;-88
2024/04/02 13:31:49;;;;;;;10.27;2.83;;;12.50;99.90;;;;;;4850914;29;20252;-88
2024/04/02 13:34:14;;;;;;;5.47;2.70;;;12.50;99.90;;;;;;4835673;29;20279;-89
2024/04/02 13:36:41;;;;;;;6.17;3.30;;;12.60;99.90;;;;;;4858657;29;20743;-89
2024/04/02 13:39:08;;;;;;;7.03;2.97;;;12.60;99.90;;;;;;4855762;29;20209;-87
2024/04/02 13:41:36;;;;;;;3.50;2.80;;;12.70;99.90;;;;;;4839949;29;20232;-89
2024/04/02 13:44:02;;;;;;;5.13;2.87;;;12.70;99.90;;;;;;4840252;29;20304;-89
2024/04/02 13:46:29;;;;;;;7.73;3.27;;;12.90;99.90;;;;;;4840628;29;20709;-88
2024/04/02 13:48:55;;;;;;;7.23;3.10;;;13.00;99.90;;;;;;4839721;29;20216;-86
2024/04/02 13:51:23;;;;;;;4.80;2.83;;;13.20;99.90;;;;;;4840679;29;20316;-86
2024/04/02 13:53:50;;;;;;;4.73;2.83;;;13.10;99.90;;;;;;4840092;29;20290;-87
2024/04/02 13:56:22;;;;;;;4.63;2.97;;;12.90;99.90;;;;;;4840060;29;20233;-87
2024/04/02 13:58:48;;;;;;;5.17;2.80;;;12.90;99.90;;;;;;4839706;29;20206;-87
2024/04/02 14:01:15;;;;;;;3.93;2.80;;;12.80;99.90;;;;;;4840453;29;20221;-88
2024/04/02 14:03:41;;;;;;;4.87;2.70;;;12.80;99.90;;;;;;4840530;29;20201;-87
2024/04/02 14:06:09;;;;;;;4.50;2.70;;;12.80;99.90;;;;;;4855219;29;20283;-89
2024/04/02 14:08:36;;;;;;;3.60;3.00;;;12.90;99.90;;;;;;4858959;29;20234;-87
2024/04/02 14:11:04;;;;;;;5.80;2.80;;;12.90;99.90;;;;;;4858706;29;20225;-88
2024/04/02 14:13:32;;;;;;;6.53;3.10;;;13.00;99.90;;;;;;4859196;29;20208;-88
2024/04/02 14:15:59;;;;;;;5.70;2.90;;;13.00;99.90;;;;;;4859329;29;20692;-87
2024/04/02 14:18:26;;;;;;;6.60;2.80;;;13.10;99.90;;;;;;4853821;29;20330;-88
2024/04/02 14:20:57;;;;;;;6.53;2.60;;;13.30;99.90;;;;;;4840435;29;20205;-87
2024/04/02 14:23:23;;;;;;;3.93;2.40;;;13.50;99.90;;;;;;4840039;29;20595;-88
2024/04/02 14:25:54;;;;;;;7.43;3.00;;;13.80;99.90;;;;;;4840659;29;20204;-89
2024/04/02 14:28:20;;;;;;;6.07;2.70;;;13.90;99.90;;;;;;4840361;29;20270;-87
2024/04/02 14:30:48;;;;;;;5.70;2.40;;;13.70;99.90;;;;;;4840321;29;20213;-87
2024/04/02 14:33:14;;;;;;;4.73;2.90;;;13.50;99.90;;;;;;4840449;29;20674;-88
2024/04/02 14:35:48;;;;;;;7.53;2.50;;;13.50;99.90;;;;;;4840201;29;20228;-89
2024/04/02 14:38:14;;;;;;;7.03;2.30;;;13.50;99.90;;;;;;4840018;29;20204;-88
2024/04/02 14:40:42;;;;;;;4.97;2.53;;;13.50;99.90;;;;;;4840587;29;20230;-89
2024/04/02 14:43:08;;;;;;;4.30;2.23;;;13.50;99.90;;;;;;4840991;29;20215;-88
2024/04/02 14:45:35;;;;;;;6.27;2.63;;;13.50;99.90;;;;;;4840549;29;20205;-89
2024/04/02 14:48:03;;;;;;;3.30;2.63;;;13.30;99.90;;;;;;4840454;29;20209;-88
2024/04/02 14:50:30;;;;;;;3.93;2.70;;;13.30;99.90;;;;;;4840648;29;20209;-88
2024/04/02 14:52:56;;;;;;;5.40;2.50;;;13.20;99.90;;;;;;4840398;29;20308;-89
2024/04/02 14:55:23;;;;;;;3.27;2.40;;;13.10;99.90;;;;;;4840235;29;20306;-89
2024/04/02 14:57:49;;;;;;;3.10;2.57;;;13.00;99.90;;;;;;4840592;29;20301;-89
2024/04/02 15:00:17;;;;;;;4.63;2.50;;;12.90;99.90;;;;;;4840348;29;20637;-87
2024/04/02 15:02:44;;;;;;;2.40;1.87;;;12.90;99.90;;;;;;4840418;29;20236;-87
2024/04/02 15:05:12;;;;;;;3.97;2.47;;;12.90;99.90;;;;;;4851320;29;20629;-88
2024/04/02 15:07:39;;;;;;;7.00;2.80;;;12.90;99.90;;;;;;4858865;29;20221;-87
2024/04/02 15:10:05;;;;;;;3.93;2.30;;;13.00;99.90;;;;;;4856269;29;20304;-88
2024/04/02 15:12:32;;;;;;;5.33;3.00;;;13.00;99.90;;;;;;4839958;29;20242;-88
2024/04/02 15:14:58;;;;;;;2.70;2.50;;;13.00;99.90;;;;;;4841261;29;20322;-88
2024/04/02 15:17:25;;;;;;;4.87;2.80;;;13.00;99.90;;;;;;4857414;29;20746;-87
2024/04/02 15:19:51;;;;;;;4.60;2.73;;;13.10;99.90;;;;;;4842856;29;20407;-88
2024/04/02 15:22:19;;;;;;;6.70;2.53;;;13.50;99.90;;;;;;4844790;29;20327;-88
2024/04/02 15:24:45;;;;;;;4.50;2.47;;;13.50;99.90;;;;;;4849941;29;20317;-88
2024/04/02 15:27:12;;;;;;;4.27;2.53;;;13.40;99.90;;;;;;4841776;29;20244;-87
2024/04/02 15:29:39;;;;;;;4.33;2.63;;;13.30;99.90;;;;;;4842524;29;20300;-88
2024/04/02 15:32:06;;;;;;;4.87;2.43;;;13.30;99.90;;;;;;4842162;29;20728;-87
2024/04/02 15:34:33;;;;;;;5.17;2.20;;;13.30;99.90;;;;;;4842604;29;20679;-87
2024/04/02 15:36:59;;;;;;;4.13;2.30;;;13.10;99.90;;;;;;4843703;29;20307;-88
2024/04/02 15:39:27;;;;;;;5.10;2.37;;;12.90;99.90;;;;;;4861396;29;20690;-88
2024/04/02 15:41:53;;;;;;;5.53;2.10;;;12.80;99.90;;;;;;4861428;29;20348;-89
2024/04/02 15:44:20;;;;;;;4.17;2.70;;;12.70;99.90;;;;;;4848611;29;20670;-87
2024/04/02 15:46:46;;;;;;;4.53;2.20;;;12.70;99.90;;;;;;4842434;29;20655;-87
2024/04/02 15:49:13;;;;;;;5.67;2.50;;;12.70;99.90;;;;;;4842639;29;20285;-87
2024/04/02 15:51:39;;;;;;;4.03;2.13;;;12.60;99.90;;;;;;4843130;29;20235;-87
2024/04/02 15:54:06;;;;;;;4.53;1.90;;;12.60;99.90;;;;;;4843015;29;20631;-87
2024/04/02 15:56:33;;;;;;;4.97;2.60;;;12.50;99.90;;;;;;4842562;29;20320;-88
2024/04/02 15:59:00;;;;;;;3.50;2.23;;;12.50;99.90;;;;;;4842837;29;20213;-88
2024/04/02 16:01:26;;;;;;;3.63;2.00;;;12.60;99.90;;;;;;4842715;29;20312;-87
2024/04/02 16:03:52;;;;;;;3.63;1.90;;;12.60;99.90;;;;;;4842526;29;20296;-88
2024/04/02 16:06:19;;;;;;;2.77;2.30;;;12.70;99.90;;;;;;4842927;29;20277;-88
2024/04/02 16:08:45;;;;;;;2.80;1.80;;;12.60;99.90;;;;;;4842105;29;20214;-88
2024/04/02 16:11:14;;;;;;;5.43;1.67;;;12.50;99.90;;;;;;4842175;29;20239;-88
2024/04/02 16:13:42;;;;;;;2.63;1.80;;;12.40;99.90;;;;;;4842329;29;20236;-88
2024/04/02 16:16:11;;;;;;;1.90;1.67;;;12.30;99.90;;;;;;4842381;29;20324;-88
2024/04/02 16:18:38;;;;;;;2.77;1.67;;;12.20;99.90;;;;;;4842451;29;20680;-87
2024/04/02 16:21:07;;;;;;;2.93;1.90;;;12.20;99.90;;;;;;4842091;29;20239;-88
2024/04/02 16:23:34;;;;;;;3.67;1.93;;;12.10;99.90;;;;;;4841927;29;20217;-88
2024/04/02 16:26:03;;;;;;;2.07;1.80;;;12.10;99.90;;;;;;4856000;29;20213;-88
2024/04/02 16:28:31;;;;;;;2.87;1.70;;;12.00;99.90;;;;;;4841630;29;20229;-87
2024/04/02 16:31:01;;;;;;;3.47;1.53;;;12.00;99.90;;;;;;4842073;29;20201;-86
2024/04/02 16:33:28;;;;;;;2.57;1.77;;;12.00;99.90;;;;;;4842381;29;20194;-87
2024/04/02 16:35:54;;;;;;;2.80;2.00;;;11.90;99.90;;;;;;4842402;29;20232;-88
2024/04/02 16:38:21;;;;;;;5.87;2.10;;;11.70;99.90;;;;;;4841995;29;20214;-88
2024/04/02 16:40:47;;;;;;;2.20;1.87;;;11.60;99.90;;;;;;4842058;29;20725;-87
2024/04/02 16:43:17;;;;;;;3.50;2.47;;;11.50;99.90;;;;;;4834197;29;20297;-87
2024/04/02 16:45:43;;;;;;;3.87;2.40;;;11.50;99.90;;;;;;4836481;29;20217;-87
2024/04/02 16:48:11;;;;;;;3.63;1.90;;;11.50;99.90;;;;;;4841547;29;20201;-87
2024/04/02 16:50:37;;;;;;;4.07;2.33;;;11.50;99.90;;;;;;4842422;29;20292;-88
2024/04/02 16:53:04;;;;;;;4.00;2.20;;;11.50;99.90;;;;;;4841243;29;20344;-86
2024/04/02 16:55:30;;;;;;;3.83;1.93;;;11.40;99.90;;;;;;4841670;29;20230;-88
2024/04/02 16:57:57;;;;;;;2.80;1.83;;;11.30;99.90;;;;;;4841192;29;20268;-87
2024/04/02 17:00:23;;;;;;;2.97;1.93;;;11.30;99.90;;;;;;4841473;29;20224;-87
2024/04/02 17:02:50;;;;;;;2.03;1.83;;;11.30;99.90;;;;;;4841924;29;20319;-87
2024/04/02 17:05:18;;;;;;;2.90;1.57;;;11.20;99.90;;;;;;4841396;29;20213;-87
2024/04/02 17:07:47;;;;;;;3.07;1.97;;;11.20;99.90;;;;;;4841524;29;20749;-87
2024/04/02 17:10:13;;;;;;;4.20;2.03;;;11.30;99.90;;;;;;4841507;29;20205;-87
2024/04/02 17:12:40;;;;;;;2.53;1.67;;;11.40;99.90;;;;;;4841580;29;20273;-88
2024/04/02 17:15:06;;;;;;;2.33;1.70;;;11.40;99.90;;;;;;4841320;29;20292;-87
2024/04/02 17:17:33;;;;;;;2.77;1.83;;;11.50;99.90;;;;;;4841017;29;20233;-87
2024/04/02 17:20:01;;;;;;;2.70;1.60;;;11.50;99.90;;;;;;4841111;29;20213;-87
2024/04/02 17:22:29;;;;;;;2.50;1.87;;;11.50;99.90;;;;;;4840833;29;20236;-87
2024/04/02 17:24:56;;;;;;;4.07;1.70;;;11.60;99.90;;;;;;4841467;29;20296;-87
2024/04/02 17:27:23;;;;;;;2.63;1.90;;;11.60;99.90;;;;;;4841220;29;20217;-88
2024/04/02 17:29:49;;;;;;;3.47;2.00;;;11.70;99.90;;;;;;4841283;29;20311;-88
2024/04/02 17:32:16;;;;;;;2.40;1.93;;;11.70;99.90;;;;;;4841323;29;20444;-87
2024/04/02 17:34:45;;;;;;;3.37;2.20;;;11.60;99.90;;;;;;4840721;29;20220;-88
2024/04/02 17:37:12;;;;;;;3.40;2.20;;;11.50;99.90;;;;;;4840803;29;20241;-87
2024/04/02 17:39:40;;;;;;;3.03;1.73;;;11.50;99.90;;;;;;4840931;29;20307;-87
2024/04/02 17:42:07;;;;;;;4.70;2.30;;;11.50;99.90;;;;;;4840962;29;20246;-87
2024/04/02 17:44:33;;;;;;;3.00;2.00;;;11.40;99.90;;;;;;4841002;29;20210;-87
2024/04/02 17:47:01;;;;;;;2.20;2.00;;;11.50;99.90;;;;;;4840988;29;20209;-88
2024/04/02 17:49:31;;;;;;;3.17;2.30;;;11.40;99.90;;;;;;4841295;29;20209;-88
2024/04/02 17:52:00;;;;;;;4.80;2.40;;;11.40;99.90;;;;;;4841414;29;20606;-88
2024/04/02 17:54:28;;;;;;;3.97;2.37;;;11.40;99.90;;;;;;4840705;29;20649;-87
2024/04/02 17:56:56;;;;;;;6.00;2.70;;;11.40;99.90;;;;;;4840308;29;20213;-88
2024/04/02 17:59:22;;;;;;;3.47;2.73;;;11.40;99.90;;;;;;4841051;29;20577;-88
2024/04/02 18:01:51;;;;;;;3.00;2.40;;;11.30;99.90;;;;;;4841471;29;20236;-88
2024/04/02 18:04:18;;;;;;;3.67;2.37;;;11.30;99.90;;;;;;4841094;29;20657;-88
2024/04/02 18:06:46;;;;;;;3.20;2.90;;;11.30;99.90;;;;;;4840823;29;20234;-87
2024/04/02 18:09:13;;;;;;;4.97;3.00;;;11.20;99.90;;;;;;4840877;29;20277;-87
2024/04/02 18:11:40;;;;;;;4.73;3.57;;;11.30;99.90;;;;;;4840747;29;20320;-87
2024/04/02 18:14:07;;;;;;;7.07;3.63;;;11.20;99.90;;;;;;4840986;29;20211;-88
2024/04/02 18:16:36;;;;;;;4.43;3.30;;;11.10;99.90;;;;;;4840200;29;20229;-87
2024/04/02 18:19:02;;;;;;;3.47;3.17;;;11.10;99.90;;;;;;4840323;29;20209;-87
2024/04/02 18:21:29;;;;;;;3.70;3.20;;;11.10;99.90;;;;;;4839060;29;20251;-87
2024/04/02 18:23:55;;;;;;;5.17;3.27;;;11.00;99.90;;;;;;4840620;29;20209;-87
2024/04/02 18:26:22;;;;;;;5.47;3.00;;;11.10;99.90;;;;;;4840291;29;20273;-87
2024/04/02 18:28:52;;;;;;;4.10;2.93;;;11.00;99.90;;;;;;4840554;29;20209;-87
2024/04/02 18:31:20;;;;;;;6.00;2.70;;;11.00;99.90;;;;;;4840989;29;20244;-88
2024/04/02 18:33:46;;;;;;;2.47;2.27;;;10.90;99.90;;;;;;4848293;29;20220;-87
2024/04/02 18:36:13;;;;;;;4.20;2.20;;;10.90;99.90;;;;;;4858756;29;20551;-87
2024/04/02 18:38:41;;;;;;;3.27;2.00;;;10.90;99.90;;;;;;4859720;29;20638;-88
2024/04/02 18:41:08;;;;;;;3.03;1.90;;;10.90;99.90;;;;;;4845963;29;20229;-88
2024/04/02 18:43:35;;;;;;;2.93;2.17;;;10.90;99.90;;;;;;4840608;29;20221;-88
2024/04/02 18:46:06;;;;;;;4.67;2.33;;;10.80;99.90;;;;;;4840194;29;20553;-89
2024/04/02 18:48:34;;;;;;;2.57;1.87;;;10.80;99.90;;;;;;4840339;29;20297;-87
2024/04/02 18:51:00;;;;;;;3.57;1.70;;;10.80;99.90;;;;;;4841616;29;20205;-88
2024/04/02 18:53:26;;;;;;;2.53;1.90;;;10.90;99.90;;;;;;4843900;29;20573;-87
2024/04/02 18:55:58;;;;;;;3.87;2.07;;;10.80;99.90;;;;;;4843646;29;20237;-88
2024/04/02 18:58:23;;;;;;;3.40;2.00;;;10.80;99.90;;;;;;4826402;29;20302;-88
2024/04/02 19:00:51;;;;;;;2.50;2.17;;;10.80;99.90;;;;;;4844222;29;20292;-87
2024/04/02 19:03:17;;;;;;;3.07;2.20;;;10.80;99.90;;;;;;4843824;29;20212;-87
2024/04/02 19:05:45;;;;;;;4.03;2.10;;;10.80;99.90;;;;;;4843797;29;20665;-88
2024/04/02 19:08:11;;;;;;;3.90;2.70;;;10.80;99.90;;;;;;4843818;29;20193;-89
2024/04/02 19:10:39;;;;;;;2.63;2.30;;;10.80;99.90;;;;;;4853945;29;20303;-87
2024/04/02 19:13:07;;;;;;;2.40;2.20;;;10.80;99.90;;;;;;4854947;29;20226;-88
2024/04/02 19:15:34;;;;;;;2.63;2.40;;;10.80;99.90;;;;;;4843585;29;20213;-88
2024/04/02 19:18:00;;;;;;;3.07;2.37;;;10.80;99.90;;;;;;4843345;29;20223;-88
2024/04/02 19:20:27;;;;;;;2.93;2.57;;;10.80;99.90;;;;;;4843273;29;20662;-88
2024/04/02 19:22:54;;;;;;;2.87;2.57;;;10.70;99.90;;;;;;4843425;29;20241;-87
2024/04/02 19:25:21;;;;;;;3.03;2.27;;;10.70;99.90;;;;;;4838324;29;20205;-88
2024/04/02 19:27:48;;;;;;;3.33;2.70;;;10.70;99.90;;;;;;4842904;29;20221;-87
2024/04/02 19:30:15;;;;;;;2.87;2.57;;;10.70;99.90;;;;;;4843396;29;20292;-87
2024/04/02 19:32:41;;;;;;;3.67;3.07;;;10.70;99.90;;;;;;4843268;29;20233;-87
2024/04/02 19:35:08;;;;;;;4.43;3.40;;;10.70;99.90;;;;;;4843053;29;20311;-88
2024/04/02 19:37:34;;;;;;;3.77;2.93;;;10.70;99.90;;;;;;4843257;29;20231;-87
2024/04/02 19:40:03;;;;;;;3.17;2.77;;;10.70;99.90;;;;;;4878823;24;20310;-87
2024/04/02 19:42:30;;;;;;;4.07;3.47;;;10.70;99.90;;;;;;4881296;29;20268;-87
2024/04/02 19:44:57;;;;;;;5.00;3.13;;;10.70;99.90;;;;;;4880586;29;20300;-87
2024/04/02 19:47:23;;;;;;;4.00;3.27;;;10.60;99.90;;;;;;4880721;29;20563;-86
2024/04/02 19:49:51;;;;;;;4.67;3.47;;;10.60;99.90;;;;;;4881813;29;20314;-87
2024/04/02 19:52:18;;;;;;;5.87;3.80;;;10.60;99.90;;;;;;4882426;29;20204;-86
2024/04/02 19:54:44;;;;;;;5.47;4.20;;;10.60;99.90;;;;;;4881297;29;20212;-86
2024/04/02 19:57:12;;;;;;;6.03;3.77;;;10.60;99.90;;;;;;4882132;29;20223;-86
2024/04/02 19:59:38;;;;;;;5.50;3.67;;;10.60;99.90;;;;;;4882404;29;20339;-86
2024/04/02 20:02:05;;;;;;;5.27;4.07;;;10.50;99.90;;;;;;4881463;29;20303;-86
2024/04/02 20:04:31;;;;;;;6.40;4.40;;;10.50;99.90;;;;;;4881529;29;20255;-88
2024/04/02 20:06:58;;;;;;;6.27;4.10;;;10.50;99.90;;;;;;4881749;29;20239;-87
2024/04/02 20:09:25;;;;;;;3.97;3.57;;;10.60;99.90;;;;;;4881614;29;20310;-86
2024/04/02 20:11:52;;;;;;;4.87;3.67;;;10.50;99.90;;;;;;4881847;29;20188;-86
2024/04/02 20:14:19;;;;;;;6.53;4.27;;;10.60;99.90;;;;;;4881263;29;20212;-86